Time;durP1;ratioP1;P1;durP2;ratioP2;P2;SDS_P1;SDS_P2;PMS_P1;PMS_P2;Temp;Humidity;BMP_temperature;BMP_pressure;BME280_temperature;BME280_humidity;BME280_pressure;Samples;Min_cycle;Max_cycle;Signal;HPM_P1;HPM_P2
2022/01/29 00:01:45;;;;;;;15.35;10.15;;;2.10;85.70;;;;;;5012931;28;20203;-59
2022/01/29 00:04:12;;;;;;;15.40;9.52;;;2.10;86.10;;;;;;5014194;28;20293;-59
2022/01/29 00:06:39;;;;;;;12.10;9.10;;;2.00;86.30;;;;;;5013946;28;20325;-57
2022/01/29 00:09:07;;;;;;;15.18;10.13;;;2.00;86.70;;;;;;5013936;28;20207;-58
2022/01/29 00:11:36;;;;;;;15.35;9.73;;;2.00;86.80;;;;;;5014049;28;20321;-59
2022/01/29 00:14:05;;;;;;;13.93;9.68;;;2.10;86.70;;;;;;5013952;28;20207;-59
2022/01/29 00:16:32;;;;;;;18.50;10.93;;;2.10;86.60;;;;;;5012699;28;20290;-58
2022/01/29 00:18:59;;;;;;;15.32;8.50;;;2.10;86.70;;;;;;5013928;28;20202;-57
2022/01/29 00:21:26;;;;;;;16.42;10.00;;;2.10;86.60;;;;;;5013580;28;20727;-58
2022/01/29 00:23:53;;;;;;;13.32;9.43;;;2.20;86.40;;;;;;5013840;28;20213;-58
2022/01/29 00:26:22;;;;;;;13.98;9.40;;;2.30;85.90;;;;;;5013728;28;20203;-59
2022/01/29 00:28:51;;;;;;;13.18;9.57;;;2.40;85.50;;;;;;5013146;28;20207;-59
2022/01/29 00:31:18;;;;;;;12.23;9.55;;;2.40;85.40;;;;;;5012356;28;20262;-58
2022/01/29 00:33:45;;;;;;;15.32;9.48;;;2.50;85.20;;;;;;5013587;28;20211;-58
2022/01/29 00:36:12;;;;;;;17.58;9.55;;;2.50;84.80;;;;;;5013610;28;20229;-57
2022/01/29 00:38:39;;;;;;;15.07;9.57;;;2.40;84.70;;;;;;5013616;28;20238;-59
2022/01/29 00:41:07;;;;;;;12.98;9.55;;;2.30;84.90;;;;;;5013461;28;20326;-60
2022/01/29 00:43:34;;;;;;;13.00;9.23;;;2.30;85.30;;;;;;5013490;28;20238;-58
2022/01/29 00:46:02;;;;;;;11.80;8.88;;;2.20;85.50;;;;;;5012117;28;20261;-55
2022/01/29 00:48:29;;;;;;;12.38;9.07;;;2.30;85.40;;;;;;5013284;28;20244;-59
2022/01/29 00:50:57;;;;;;;12.45;9.40;;;2.30;85.20;;;;;;5013322;28;20202;-58
2022/01/29 00:53:23;;;;;;;12.82;9.23;;;2.30;85.30;;;;;;5013397;28;20202;-58
2022/01/29 00:55:50;;;;;;;14.70;9.70;;;2.20;85.10;;;;;;5013322;28;20213;-57
2022/01/29 00:58:17;;;;;;;13.77;8.93;;;2.20;85.30;;;;;;5013432;28;20580;-58
2022/01/29 01:00:46;;;;;;;12.38;8.82;;;2.20;85.10;;;;;;5012018;28;20206;-56
2022/01/29 01:03:14;;;;;;;13.98;8.93;;;2.30;84.90;;;;;;5013268;28;20241;-58
2022/01/29 01:05:41;;;;;;;11.73;8.10;;;2.30;84.60;;;;;;5013125;28;20206;-55
2022/01/29 01:08:10;;;;;;;10.65;7.80;;;2.20;84.60;;;;;;5013040;28;20238;-55
2022/01/29 01:10:38;;;;;;;11.32;9.38;;;2.10;84.80;;;;;;5013115;28;20271;-56
2022/01/29 01:13:05;;;;;;;14.77;9.18;;;2.20;84.90;;;;;;5013206;28;20225;-58
2022/01/29 01:15:32;;;;;;;12.27;8.90;;;2.20;84.80;;;;;;5011711;28;20218;-58
2022/01/29 01:17:59;;;;;;;12.15;8.60;;;2.10;84.80;;;;;;5013103;28;20213;-58
2022/01/29 01:20:27;;;;;;;13.43;8.55;;;2.10;85.00;;;;;;5012846;28;20209;-56
2022/01/29 01:22:54;;;;;;;10.20;7.85;;;2.10;84.60;;;;;;5013085;28;20209;-58
2022/01/29 01:25:21;;;;;;;8.82;7.80;;;2.00;84.50;;;;;;5013071;28;20206;-57
2022/01/29 01:27:48;;;;;;;10.23;8.13;;;2.10;84.70;;;;;;5012982;28;20233;-58
2022/01/29 01:30:15;;;;;;;13.07;8.50;;;2.10;84.40;;;;;;5011577;28;20407;-59
2022/01/29 01:32:42;;;;;;;8.80;7.15;;;2.20;84.00;;;;;;5012900;28;20297;-59
2022/01/29 01:35:16;;;;;;;10.98;8.38;;;2.20;83.30;;;;;;5012847;28;20622;-58
2022/01/29 01:37:49;;;;;;;9.25;7.57;;;2.30;83.30;;;;;;5012881;28;20268;-55
2022/01/29 01:40:17;;;;;;;11.52;8.10;;;2.30;83.10;;;;;;5014503;28;20245;-57
2022/01/29 01:42:44;;;;;;;11.15;7.22;;;2.30;82.80;;;;;;5016782;28;20206;-58
2022/01/29 01:45:11;;;;;;;9.05;6.63;;;2.30;83.00;;;;;;5015514;28;20295;-59
2022/01/29 01:47:38;;;;;;;8.02;7.22;;;2.50;82.60;;;;;;5016704;28;20309;-57
2022/01/29 01:50:06;;;;;;;9.70;7.50;;;2.70;83.20;;;;;;5016625;28;20209;-58
2022/01/29 01:52:33;;;;;;;9.68;7.28;;;3.00;81.90;;;;;;5016662;28;20662;-56
2022/01/29 01:55:01;;;;;;;12.10;8.00;;;3.20;81.30;;;;;;5016595;28;20299;-58
2022/01/29 01:57:28;;;;;;;8.50;7.55;;;3.40;80.00;;;;;;5016592;28;20397;-58
2022/01/29 01:59:55;;;;;;;9.40;8.15;;;3.50;80.40;;;;;;5016559;28;20221;-58
2022/01/29 02:02:22;;;;;;;8.40;7.47;;;3.50;79.20;;;;;;5015564;28;20202;-58
2022/01/29 02:04:49;;;;;;;8.90;7.60;;;3.60;79.00;;;;;;5016374;28;20210;-58
2022/01/29 02:07:17;;;;;;;9.98;8.43;;;3.50;78.00;;;;;;5016339;28;20229;-58
2022/01/29 02:09:44;;;;;;;9.05;7.53;;;3.30;78.50;;;;;;5016393;28;20203;-56
2022/01/29 02:12:13;;;;;;;11.82;8.27;;;3.10;79.20;;;;;;5016289;28;20226;-58
2022/01/29 02:14:40;;;;;;;10.45;8.45;;;3.10;79.50;;;;;;5016287;28;20265;-57
2022/01/29 02:17:08;;;;;;;12.05;9.07;;;3.00;79.70;;;;;;5014948;28;20716;-58
2022/01/29 02:19:36;;;;;;;10.60;8.50;;;2.80;80.10;;;;;;5016223;28;20203;-56
2022/01/29 02:22:06;;;;;;;10.38;8.60;;;2.80;80.50;;;;;;5016309;28;20210;-59
2022/01/29 02:24:33;;;;;;;8.65;7.75;;;2.70;80.90;;;;;;5016004;28;20237;-56
2022/01/29 02:27:00;;;;;;;10.50;8.00;;;2.60;81.20;;;;;;5016001;28;20206;-57
2022/01/29 02:29:27;;;;;;;11.63;8.20;;;2.70;81.10;;;;;;5016017;28;20207;-58
2022/01/29 02:31:56;;;;;;;8.30;7.47;;;2.70;80.70;;;;;;5014751;28;20610;-57
2022/01/29 02:34:24;;;;;;;10.43;7.88;;;2.70;80.90;;;;;;5015941;28;20295;-59
2022/01/29 02:36:52;;;;;;;10.55;8.27;;;2.70;80.80;;;;;;5015510;28;20289;-56
2022/01/29 02:39:21;;;;;;;11.93;8.38;;;2.70;80.90;;;;;;5015723;28;20288;-57
2022/01/29 02:41:48;;;;;;;9.45;7.82;;;2.70;80.90;;;;;;5015800;28;20221;-57
2022/01/29 02:44:20;;;;;;;8.25;7.45;;;2.60;81.30;;;;;;5015762;28;20805;-58
2022/01/29 02:46:52;;;;;;;9.10;7.88;;;2.60;81.70;;;;;;5014444;28;20202;-58
2022/01/29 02:49:21;;;;;;;9.68;7.55;;;2.70;81.10;;;;;;5015469;28;20231;-55
2022/01/29 02:51:49;;;;;;;8.75;7.78;;;2.70;81.10;;;;;;5014689;28;20564;-55
2022/01/29 02:54:17;;;;;;;8.82;7.95;;;2.70;80.70;;;;;;5015599;28;20546;-55
2022/01/29 02:56:45;;;;;;;10.35;8.10;;;2.60;80.70;;;;;;5015528;28;20306;-57
2022/01/29 02:59:13;;;;;;;9.05;8.15;;;2.50;81.00;;;;;;5015568;28;20285;-59
2022/01/29 03:01:40;;;;;;;9.07;7.50;;;2.50;81.10;;;;;;5014112;28;20212;-57
2022/01/29 03:04:07;;;;;;;9.23;8.20;;;2.50;81.40;;;;;;5015250;28;20215;-57
2022/01/29 03:06:34;;;;;;;9.43;8.15;;;2.40;81.70;;;;;;5015169;28;20207;-57
2022/01/29 03:09:02;;;;;;;8.10;7.30;;;2.40;82.00;;;;;;5015055;28;20253;-57
2022/01/29 03:11:29;;;;;;;8.23;7.50;;;2.30;82.00;;;;;;5015177;28;20332;-58
2022/01/29 03:13:57;;;;;;;7.82;7.03;;;2.20;82.20;;;;;;5015234;28;20198;-58
2022/01/29 03:16:24;;;;;;;9.23;7.45;;;2.20;82.40;;;;;;5013717;28;20213;-59
2022/01/29 03:18:51;;;;;;;7.97;7.30;;;2.20;82.30;;;;;;5015064;28;20206;-58
2022/01/29 03:21:18;;;;;;;7.60;6.90;;;2.20;82.10;;;;;;5014891;28;20202;-55
2022/01/29 03:23:45;;;;;;;11.93;7.45;;;2.10;82.20;;;;;;5015103;28;20203;-56
2022/01/29 03:26:12;;;;;;;10.88;6.65;;;2.20;82.10;;;;;;5014986;28;20202;-59
2022/01/29 03:28:38;;;;;;;8.55;6.68;;;2.30;81.60;;;;;;5014788;28;20777;-56
2022/01/29 03:31:07;;;;;;;9.30;7.97;;;2.30;81.50;;;;;;5013426;28;20205;-56
2022/01/29 03:33:33;;;;;;;8.35;7.55;;;2.30;81.50;;;;;;5014775;28;20203;-55
2022/01/29 03:36:00;;;;;;;9.45;7.45;;;2.30;81.50;;;;;;5014738;28;20202;-58
2022/01/29 03:38:27;;;;;;;8.40;7.43;;;2.30;81.30;;;;;;5014768;28;20223;-57
2022/01/29 03:40:57;;;;;;;7.82;7.10;;;2.30;81.40;;;;;;5014546;28;20326;-57
2022/01/29 03:43:31;;;;;;;7.65;6.85;;;2.30;81.50;;;;;;5014619;28;20199;-55
2022/01/29 03:45:57;;;;;;;7.75;6.95;;;2.30;81.50;;;;;;5013502;28;20206;-56
2022/01/29 03:48:26;;;;;;;8.27;7.28;;;2.40;81.50;;;;;;5014437;28;20325;-56
2022/01/29 03:50:53;;;;;;;7.65;6.60;;;2.30;81.40;;;;;;5014412;28;20209;-55
2022/01/29 03:53:19;;;;;;;10.05;7.28;;;2.30;81.50;;;;;;5014381;28;20217;-57
2022/01/29 03:55:47;;;;;;;8.07;6.70;;;2.30;81.70;;;;;;5014317;28;20207;-54
2022/01/29 03:58:14;;;;;;;8.35;7.05;;;2.20;81.90;;;;;;5014263;28;20569;-55
2022/01/29 04:00:41;;;;;;;8.15;7.43;;;2.20;82.10;;;;;;5013170;28;20207;-57
2022/01/29 04:03:08;;;;;;;7.80;7.05;;;2.10;82.30;;;;;;5013330;28;20650;-54
2022/01/29 04:05:36;;;;;;;7.50;6.80;;;2.10;82.30;;;;;;5014080;28;20209;-55
2022/01/29 04:08:07;;;;;;;8.00;7.20;;;2.10;82.50;;;;;;5014044;28;20227;-55
2022/01/29 04:10:33;;;;;;;7.60;6.80;;;2.10;82.40;;;;;;5014131;28;20227;-56
2022/01/29 04:13:01;;;;;;;6.72;6.13;;;2.10;82.50;;;;;;5013987;28;20298;-56
2022/01/29 04:15:28;;;;;;;6.88;6.20;;;2.10;82.50;;;;;;5012730;28;20668;-55
2022/01/29 04:17:55;;;;;;;6.68;6.05;;;2.10;82.30;;;;;;5013939;28;20214;-55
2022/01/29 04:20:22;;;;;;;7.32;6.60;;;2.20;82.20;;;;;;5013945;28;20203;-56
2022/01/29 04:22:50;;;;;;;8.80;6.63;;;2.20;82.20;;;;;;5013940;28;20207;-55
2022/01/29 04:25:17;;;;;;;7.50;6.70;;;2.10;82.40;;;;;;5013875;28;20222;-55
2022/01/29 04:27:46;;;;;;;7.28;6.30;;;2.10;82.50;;;;;;5013671;28;20233;-57
2022/01/29 04:30:24;;;;;;;7.40;6.80;;;2.10;82.20;;;;;;5012490;28;20203;-55
2022/01/29 04:33:03;;;;;;;10.98;6.97;;;2.10;82.40;;;;;;5013791;28;20303;-58
2022/01/29 04:35:31;;;;;;;7.30;6.60;;;2.10;82.40;;;;;;5013563;28;20206;-54
2022/01/29 04:37:59;;;;;;;7.32;6.50;;;2.10;82.40;;;;;;5013564;28;20297;-55
2022/01/29 04:40:26;;;;;;;7.32;6.25;;;2.10;82.30;;;;;;5013472;28;20281;-55
2022/01/29 04:42:53;;;;;;;6.93;6.28;;;2.20;82.20;;;;;;5013557;28;20253;-55
2022/01/29 04:45:20;;;;;;;7.20;6.20;;;2.10;82.20;;;;;;5012334;28;20305;-54
2022/01/29 04:47:47;;;;;;;6.78;6.18;;;2.10;82.30;;;;;;5013444;28;20209;-55
2022/01/29 04:50:14;;;;;;;9.68;6.85;;;2.20;82.30;;;;;;5013322;28;20240;-55
2022/01/29 04:52:41;;;;;;;7.75;6.65;;;2.20;82.20;;;;;;5013387;28;20211;-54
2022/01/29 04:55:11;;;;;;;7.28;6.50;;;2.20;82.10;;;;;;5013423;28;20209;-55
2022/01/29 04:57:40;;;;;;;6.55;6.00;;;2.30;82.00;;;;;;5013347;28;20203;-54
2022/01/29 05:00:10;;;;;;;6.88;6.10;;;2.40;82.00;;;;;;5012056;28;20211;-54
2022/01/29 05:02:36;;;;;;;7.35;5.88;;;2.50;81.60;;;;;;5013402;28;20203;-56
2022/01/29 05:05:04;;;;;;;6.93;6.40;;;2.60;80.90;;;;;;5013186;28;20582;-55
2022/01/29 05:07:31;;;;;;;7.45;6.75;;;2.70;80.40;;;;;;5013059;28;20210;-54
2022/01/29 05:09:57;;;;;;;6.65;6.25;;;2.80;80.10;;;;;;5013043;28;20245;-56
2022/01/29 05:12:30;;;;;;;7.10;6.45;;;2.90;79.70;;;;;;5013200;28;20688;-55
2022/01/29 05:15:09;;;;;;;7.00;6.35;;;3.00;79.90;;;;;;5012463;28;20232;-55
2022/01/29 05:28:35;;;;;;;7.30;6.30;;;4.10;78.50;;;;;;5013138;28;20233;-55
2022/01/29 05:31:02;;;;;;;8.45;7.65;;;4.10;77.50;;;;;;5011737;28;20217;-55
2022/01/29 05:33:28;;;;;;;8.88;8.07;;;4.20;78.30;;;;;;5013043;28;20213;-54
2022/01/29 05:35:55;;;;;;;9.38;8.40;;;4.30;78.20;;;;;;5012846;28;20627;-55
2022/01/29 05:38:22;;;;;;;11.07;8.35;;;4.30;78.10;;;;;;5012745;28;20685;-56
2022/01/29 05:40:49;;;;;;;11.52;9.05;;;4.40;77.80;;;;;;5012753;28;20240;-55
2022/01/29 05:43:16;;;;;;;10.38;9.25;;;4.40;77.50;;;;;;5012955;28;20237;-58
2022/01/29 05:45:44;;;;;;;11.10;8.88;;;4.20;76.90;;;;;;5011639;28;20213;-58
2022/01/29 05:48:11;;;;;;;15.05;10.65;;;4.20;77.70;;;;;;5012808;28;20213;-58
2022/01/29 05:50:38;;;;;;;10.48;8.68;;;4.30;77.70;;;;;;5012657;28;20765;-59
2022/01/29 05:53:05;;;;;;;11.50;9.43;;;4.30;77.80;;;;;;5012686;28;20203;-58
2022/01/29 05:55:32;;;;;;;10.40;9.23;;;4.40;77.80;;;;;;5012816;28;20207;-58
2022/01/29 05:57:59;;;;;;;12.93;10.38;;;4.20;77.00;;;;;;5012799;28;20654;-58
2022/01/29 06:00:25;;;;;;;10.75;8.93;;;4.00;78.00;;;;;;5011443;28;20571;-58
2022/01/29 06:03:03;;;;;;;11.60;8.55;;;4.10;78.30;;;;;;5012736;28;20214;-58
2022/01/29 06:05:30;;;;;;;10.88;9.45;;;4.10;78.00;;;;;;5012472;28;20313;-58
2022/01/29 06:07:58;;;;;;;10.70;8.90;;;4.10;78.10;;;;;;5012720;28;20207;-57
2022/01/29 06:10:27;;;;;;;10.50;9.30;;;4.20;78.30;;;;;;5012437;28;20249;-59
2022/01/29 06:13:01;;;;;;;11.10;9.05;;;3.90;77.40;;;;;;5012744;28;20566;-58
2022/01/29 06:15:28;;;;;;;10.77;9.68;;;3.50;78.90;;;;;;5011318;28;20210;-58
2022/01/29 06:17:56;;;;;;;9.40;8.32;;;3.30;79.60;;;;;;5012491;28;20207;-57
2022/01/29 06:20:24;;;;;;;9.82;8.00;;;3.30;80.00;;;;;;5012530;28;20261;-57
2022/01/29 06:22:51;;;;;;;11.20;8.85;;;3.50;80.20;;;;;;5012497;28;20295;-58
2022/01/29 06:25:18;;;;;;;10.60;8.93;;;3.60;79.50;;;;;;5012476;28;20209;-58
2022/01/29 06:27:45;;;;;;;12.13;10.10;;;3.80;79.70;;;;;;5014846;28;20209;-58
2022/01/29 06:30:12;;;;;;;9.85;8.57;;;3.90;79.40;;;;;;5014598;28;20236;-56
2022/01/29 06:32:39;;;;;;;10.07;8.32;;;3.90;78.40;;;;;;5015869;28;20213;-58
2022/01/29 06:35:07;;;;;;;13.75;9.15;;;3.70;78.60;;;;;;5015936;28;20199;-56
2022/01/29 06:37:35;;;;;;;10.50;8.52;;;3.70;79.30;;;;;;5015785;28;20207;-57
2022/01/29 06:40:02;;;;;;;11.63;9.05;;;3.80;79.20;;;;;;5015676;28;20705;-58
2022/01/29 06:42:29;;;;;;;11.82;8.55;;;3.70;78.80;;;;;;5015869;28;20572;-58
2022/01/29 06:44:56;;;;;;;9.30;8.40;;;3.70;78.80;;;;;;5015689;28;20209;-56
2022/01/29 06:47:22;;;;;;;9.60;8.70;;;3.50;78.80;;;;;;5014849;28;20207;-58
2022/01/29 06:49:49;;;;;;;9.93;8.65;;;3.50;79.30;;;;;;5015657;28;20234;-58
2022/01/29 06:52:16;;;;;;;9.40;8.40;;;3.60;79.50;;;;;;5015427;28;20285;-57
2022/01/29 06:54:44;;;;;;;10.70;9.60;;;3.70;79.30;;;;;;5015569;28;20566;-58
2022/01/29 06:57:11;;;;;;;11.57;8.98;;;3.90;79.10;;;;;;5015386;28;20217;-56
2022/01/29 06:59:38;;;;;;;12.13;9.50;;;4.00;78.50;;;;;;5015227;28;20203;-57
2022/01/29 07:02:05;;;;;;;11.45;9.68;;;4.00;78.30;;;;;;5014072;28;20202;-57
2022/01/29 07:04:32;;;;;;;13.95;9.82;;;4.10;78.40;;;;;;5015327;28;20665;-55
2022/01/29 07:06:59;;;;;;;11.40;9.10;;;4.10;78.40;;;;;;5015088;28;20665;-58
2022/01/29 07:09:26;;;;;;;11.80;9.55;;;4.10;78.10;;;;;;5014959;28;20238;-57
2022/01/29 07:11:57;;;;;;;16.35;9.35;;;4.00;78.10;;;;;;5015182;28;20253;-56
2022/01/29 07:14:24;;;;;;;9.20;8.25;;;3.70;78.70;;;;;;5014946;28;20203;-55
2022/01/29 07:16:51;;;;;;;10.73;9.30;;;3.10;80.00;;;;;;5013893;28;20207;-58
2022/01/29 07:19:18;;;;;;;10.48;8.20;;;2.90;80.90;;;;;;5015047;28;20206;-59
2022/01/29 07:21:45;;;;;;;8.18;7.45;;;2.60;82.00;;;;;;5014808;28;20213;-54
2022/01/29 07:24:12;;;;;;;8.40;7.38;;;2.30;82.80;;;;;;5015068;28;20302;-58
2022/01/29 07:26:39;;;;;;;8.43;7.55;;;2.20;83.20;;;;;;5014961;28;20676;-57
2022/01/29 07:29:07;;;;;;;12.85;6.95;;;2.20;83.50;;;;;;5014687;28;20777;-56
2022/01/29 07:31:34;;;;;;;8.25;7.38;;;2.30;83.20;;;;;;5013619;28;20209;-59
2022/01/29 07:34:00;;;;;;;8.05;7.32;;;2.30;83.10;;;;;;5014783;28;20627;-59
2022/01/29 07:36:27;;;;;;;7.40;6.70;;;2.30;82.70;;;;;;5014622;28;20202;-59
2022/01/29 07:38:54;;;;;;;7.47;6.88;;;2.30;83.10;;;;;;5014396;28;20239;-58
2022/01/29 07:41:21;;;;;;;7.85;7.07;;;2.30;83.20;;;;;;5014591;28;20211;-59
2022/01/29 07:43:48;;;;;;;7.15;6.50;;;2.20;83.60;;;;;;5014677;28;20209;-57
2022/01/29 07:46:16;;;;;;;7.07;6.45;;;2.20;83.90;;;;;;5013178;28;20576;-56
2022/01/29 07:48:43;;;;;;;7.95;6.65;;;2.20;83.70;;;;;;5014430;28;20206;-58
2022/01/29 07:51:10;;;;;;;7.93;5.97;;;2.10;84.00;;;;;;5014401;28;20213;-59
2022/01/29 07:53:36;;;;;;;7.88;5.78;;;2.10;84.00;;;;;;5014509;28;20203;-58
2022/01/29 07:56:04;;;;;;;7.10;5.90;;;2.10;84.30;;;;;;5014281;28;20297;-58
2022/01/29 07:58:31;;;;;;;7.85;6.28;;;2.00;84.10;;;;;;5014283;28;20206;-58
2022/01/29 08:00:58;;;;;;;6.55;6.03;;;2.00;84.10;;;;;;5012954;28;20297;-55
2022/01/29 08:03:26;;;;;;;6.65;6.05;;;2.10;84.40;;;;;;5014426;28;20203;-57
2022/01/29 08:05:53;;;;;;;6.75;6.05;;;2.10;83.60;;;;;;5014149;28;20203;-60
2022/01/29 08:08:20;;;;;;;6.75;6.15;;;2.20;82.70;;;;;;5014190;28;20242;-55
2022/01/29 08:10:47;;;;;;;8.05;5.90;;;2.20;82.80;;;;;;5013810;28;20597;-58
2022/01/29 08:13:14;;;;;;;5.88;5.22;;;2.20;82.70;;;;;;5014053;28;20225;-59
2022/01/29 08:15:41;;;;;;;6.57;5.80;;;2.30;82.50;;;;;;5012731;28;20792;-59
2022/01/29 08:18:08;;;;;;;6.90;6.40;;;2.30;82.20;;;;;;5014073;28;20565;-57
2022/01/29 08:20:36;;;;;;;6.00;5.40;;;2.30;82.10;;;;;;5013960;28;20206;-59
2022/01/29 08:23:07;;;;;;;7.47;6.65;;;2.30;81.80;;;;;;5013726;28;20199;-58
2022/01/29 08:25:34;;;;;;;6.70;6.03;;;2.30;82.00;;;;;;5013894;28;20203;-59
2022/01/29 08:28:01;;;;;;;5.88;5.20;;;2.30;81.80;;;;;;5013856;28;20209;-60
2022/01/29 08:30:28;;;;;;;6.65;6.05;;;2.40;81.10;;;;;;5012472;28;20234;-60
2022/01/29 08:32:55;;;;;;;6.80;5.97;;;2.40;81.40;;;;;;5013650;28;20210;-59
2022/01/29 08:35:22;;;;;;;6.60;5.90;;;2.50;80.50;;;;;;5013851;28;20333;-59
2022/01/29 08:37:50;;;;;;;6.70;6.10;;;2.60;80.10;;;;;;5013484;28;20630;-55
2022/01/29 08:40:17;;;;;;;7.32;6.70;;;2.70;79.00;;;;;;5013428;28;20238;-56
2022/01/29 08:42:43;;;;;;;7.25;6.65;;;2.70;78.50;;;;;;5013644;28;20209;-56
2022/01/29 08:45:13;;;;;;;6.80;6.30;;;2.80;78.40;;;;;;5012312;28;20717;-59
2022/01/29 08:47:40;;;;;;;7.70;7.00;;;2.80;78.10;;;;;;5013476;28;20234;-57
2022/01/29 08:50:08;;;;;;;6.30;5.70;;;2.90;78.00;;;;;;5012864;28;20234;-58
2022/01/29 08:52:35;;;;;;;8.35;7.65;;;2.90;78.20;;;;;;5013065;28;20678;-58
2022/01/29 08:55:04;;;;;;;8.60;7.35;;;2.90;77.90;;;;;;5013413;28;20206;-58
2022/01/29 08:57:31;;;;;;;8.80;8.00;;;2.90;78.20;;;;;;5013339;28;20298;-58
2022/01/29 08:59:58;;;;;;;8.30;7.50;;;2.90;78.00;;;;;;5013175;28;20293;-57
2022/01/29 09:02:25;;;;;;;8.90;8.10;;;3.00;78.00;;;;;;5012510;28;20206;-58
2022/01/29 09:04:53;;;;;;;8.35;7.55;;;3.00;77.60;;;;;;5013179;28;20558;-59
2022/01/29 09:07:20;;;;;;;7.50;6.70;;;3.00;77.90;;;;;;5012971;28;20657;-58
2022/01/29 09:09:47;;;;;;;9.00;7.90;;;3.00;77.80;;;;;;5012967;28;20544;-59
2022/01/29 09:12:15;;;;;;;9.60;7.93;;;3.00;78.00;;;;;;5013092;28;20261;-59
2022/01/29 09:14:43;;;;;;;9.77;7.80;;;3.10;77.80;;;;;;5013060;28;20553;-57
2022/01/29 09:17:10;;;;;;;8.85;8.00;;;3.20;78.10;;;;;;5011734;28;20297;-55
2022/01/29 09:19:37;;;;;;;8.80;8.00;;;3.30;77.20;;;;;;5012788;28;20210;-56
2022/01/29 09:22:04;;;;;;;11.55;7.90;;;3.30;77.40;;;;;;5012673;28;20203;-59
2022/01/29 09:24:31;;;;;;;7.95;7.25;;;3.40;77.10;;;;;;5012978;28;20656;-56
2022/01/29 09:26:59;;;;;;;9.02;8.20;;;3.50;77.90;;;;;;5012769;28;20198;-56
2022/01/29 09:29:28;;;;;;;9.40;8.60;;;3.60;76.50;;;;;;5012700;28;20203;-57
2022/01/29 09:31:54;;;;;;;9.98;8.52;;;3.70;76.60;;;;;;5011622;28;20302;-54
2022/01/29 09:34:21;;;;;;;9.75;8.13;;;3.70;76.40;;;;;;5012666;28;20217;-55
2022/01/29 09:36:48;;;;;;;8.65;7.75;;;3.70;76.50;;;;;;5012751;28;20576;-55
2022/01/29 09:39:15;;;;;;;7.10;6.35;;;3.70;76.70;;;;;;5012652;28;20667;-58
2022/01/29 09:41:45;;;;;;;9.77;8.00;;;3.60;77.10;;;;;;5012670;28;20205;-55
2022/01/29 09:44:13;;;;;;;8.25;7.55;;;3.60;77.60;;;;;;5012536;28;20217;-58
2022/01/29 09:46:44;;;;;;;7.55;6.85;;;3.70;77.90;;;;;;5011318;28;20211;-56
2022/01/29 09:49:12;;;;;;;8.20;7.40;;;3.90;77.40;;;;;;5012705;28;20234;-61
2022/01/29 09:51:40;;;;;;;8.43;7.63;;;3.90;77.00;;;;;;5012409;28;20696;-55
2022/01/29 09:54:07;;;;;;;8.65;7.93;;;3.90;77.10;;;;;;5012577;28;20213;-55
2022/01/29 09:56:34;;;;;;;9.55;8.32;;;3.90;77.50;;;;;;5012661;28;20205;-54
2022/01/29 09:59:01;;;;;;;8.93;8.13;;;3.90;77.20;;;;;;5012646;28;20231;-55
2022/01/29 10:01:28;;;;;;;9.45;7.75;;;3.80;77.90;;;;;;5011843;28;20732;-56
2022/01/29 10:04:01;;;;;;;8.27;7.43;;;3.90;78.70;;;;;;5016378;28;20203;-58
2022/01/29 10:06:29;;;;;;;9.00;8.10;;;4.00;78.30;;;;;;5016135;28;20581;-57
2022/01/29 10:08:56;;;;;;;9.48;7.38;;;4.20;78.00;;;;;;5016101;28;20222;-58
2022/01/29 10:11:25;;;;;;;8.70;7.88;;;4.30;77.20;;;;;;5016126;28;20230;-58
2022/01/29 10:13:52;;;;;;;7.88;7.07;;;4.50;77.50;;;;;;5016049;28;20565;-60
2022/01/29 10:16:20;;;;;;;7.60;7.00;;;4.70;77.00;;;;;;5014843;28;20213;-56
2022/01/29 10:18:58;;;;;;;9.10;6.28;;;4.70;77.60;;;;;;5016049;28;20666;-60
2022/01/29 10:21:29;;;;;;;7.50;6.80;;;4.70;77.40;;;;;;5015910;28;20211;-59
2022/01/29 10:24:04;;;;;;;6.53;5.93;;;4.60;78.50;;;;;;5015933;28;20199;-54
2022/01/29 10:26:34;;;;;;;8.55;7.20;;;4.70;78.50;;;;;;5015851;28;20681;-58
2022/01/29 10:29:02;;;;;;;8.23;7.60;;;4.70;78.20;;;;;;5015985;28;20560;-60
2022/01/29 10:31:40;;;;;;;8.18;6.90;;;4.70;78.50;;;;;;5014413;28;20238;-59
2022/01/29 10:34:19;;;;;;;7.60;6.90;;;4.70;78.70;;;;;;5015775;28;20575;-58
2022/01/29 10:37:14;;;;;;;9.15;6.70;;;4.70;79.20;;;;;;5015406;28;20293;-58
2022/01/29 10:39:42;;;;;;;7.18;6.57;;;4.80;79.10;;;;;;5015394;28;20249;-55
2022/01/29 10:42:17;;;;;;;8.27;6.97;;;5.00;78.70;;;;;;5015702;28;20620;-58
2022/01/29 10:44:45;;;;;;;9.98;6.85;;;5.00;78.40;;;;;;5015726;28;20256;-55
2022/01/29 10:47:13;;;;;;;10.18;7.47;;;5.00;78.50;;;;;;5014283;28;20206;-57
2022/01/29 10:49:45;;;;;;;7.85;6.85;;;5.10;78.20;;;;;;5015471;28;20207;-57
2022/01/29 10:52:15;;;;;;;8.18;7.35;;;5.10;78.50;;;;;;5015671;28;20621;-61
2022/01/29 10:54:46;;;;;;;7.43;6.85;;;5.30;78.40;;;;;;5015516;28;20566;-57
2022/01/29 10:57:15;;;;;;;7.32;6.80;;;5.40;77.80;;;;;;5015437;28;20213;-58
2022/01/29 10:59:48;;;;;;;6.50;5.95;;;5.50;77.50;;;;;;5015283;28;20250;-57
2022/01/29 11:02:16;;;;;;;6.30;5.70;;;5.50;77.90;;;;;;5014200;28;20213;-58
2022/01/29 11:04:44;;;;;;;6.70;6.10;;;5.50;78.10;;;;;;5015236;28;20654;-58
2022/01/29 11:07:15;;;;;;;7.20;6.50;;;5.60;78.50;;;;;;5015186;28;20257;-57
2022/01/29 11:09:46;;;;;;;8.88;5.10;;;5.70;78.50;;;;;;5015180;28;20273;-58
2022/01/29 11:12:17;;;;;;;5.45;4.95;;;5.60;78.50;;;;;;5014633;28;20206;-56
2022/01/29 11:14:45;;;;;;;5.97;5.38;;;5.50;78.80;;;;;;5015144;28;20211;-58
2022/01/29 11:17:15;;;;;;;6.18;5.70;;;5.50;79.10;;;;;;5013943;28;20289;-60
2022/01/29 11:19:42;;;;;;;5.72;5.20;;;5.50;79.20;;;;;;5015069;28;20202;-58
2022/01/29 11:22:10;;;;;;;6.10;5.60;;;5.50;79.90;;;;;;5014894;28;20237;-61
2022/01/29 11:24:39;;;;;;;5.75;5.25;;;5.40;80.10;;;;;;5014845;28;20218;-55
2022/01/29 11:27:25;;;;;;;5.88;5.47;;;5.40;80.60;;;;;;5014884;28;20221;-59
2022/01/29 11:30:01;;;;;;;5.93;5.43;;;5.50;80.50;;;;;;5014812;28;20213;-57
2022/01/29 11:32:32;;;;;;;5.50;5.18;;;5.60;80.00;;;;;;5014446;28;20202;-57
2022/01/29 11:35:13;;;;;;;5.82;5.40;;;5.70;79.60;;;;;;5014770;28;20293;-54
2022/01/29 11:37:49;;;;;;;5.10;4.70;;;5.50;80.40;;;;;;5014592;28;20202;-58
2022/01/29 11:40:19;;;;;;;5.30;4.90;;;5.50;80.20;;;;;;5014475;28;20241;-58
2022/01/29 11:42:59;;;;;;;5.32;4.78;;;5.50;80.70;;;;;;5014540;28;20213;-58
2022/01/29 11:45:40;;;;;;;5.85;5.35;;;5.40;81.30;;;;;;5013273;28;20207;-59
2022/01/29 11:48:09;;;;;;;5.60;4.95;;;5.50;81.30;;;;;;5014601;28;20625;-58
2022/01/29 11:50:47;;;;;;;6.45;5.63;;;5.60;80.80;;;;;;5014421;28;20234;-60
2022/01/29 11:53:15;;;;;;;5.20;4.80;;;5.60;80.40;;;;;;5014333;28;20213;-58
2022/01/29 11:55:45;;;;;;;5.03;4.72;;;5.40;80.90;;;;;;5014493;28;20573;-59
2022/01/29 11:58:27;;;;;;;5.88;5.45;;;5.40;81.50;;;;;;5014241;28;20202;-59
2022/01/29 12:00:55;;;;;;;5.45;5.05;;;5.50;81.60;;;;;;5012959;28;20588;-60
2022/01/29 12:03:53;;;;;;;5.10;4.70;;;5.50;80.60;;;;;;5014226;28;20230;-59
2022/01/29 12:06:24;;;;;;;4.25;3.95;;;5.50;81.10;;;;;;5014117;28;20218;-58
2022/01/29 12:09:24;;;;;;;5.03;4.72;;;5.50;81.00;;;;;;5014019;28;20207;-59
2022/01/29 12:12:19;;;;;;;4.90;4.60;;;5.50;80.50;;;;;;5013934;28;20559;-59
2022/01/29 12:14:49;;;;;;;4.90;4.60;;;5.60;80.50;;;;;;5013731;28;20680;-60
2022/01/29 12:17:35;;;;;;;5.60;5.20;;;5.60;80.50;;;;;;5012595;28;20213;-60
2022/01/29 12:20:04;;;;;;;7.03;5.85;;;5.50;80.70;;;;;;5013748;28;20629;-59
2022/01/29 12:22:35;;;;;;;5.07;4.65;;;5.40;81.90;;;;;;5013602;28;20261;-60
2022/01/29 12:25:06;;;;;;;5.38;4.97;;;5.20;82.10;;;;;;5012927;28;20601;-57
2022/01/29 12:27:44;;;;;;;5.20;4.90;;;5.10;82.60;;;;;;5013748;28;20213;-59
2022/01/29 12:30:15;;;;;;;5.50;5.10;;;5.10;82.70;;;;;;5012469;28;20209;-60
2022/01/29 12:32:53;;;;;;;4.90;4.50;;;5.10;83.00;;;;;;5013848;28;20293;-59
2022/01/29 12:35:20;;;;;;;4.45;4.15;;;5.30;83.10;;;;;;5013819;28;20206;-57
2022/01/29 12:37:54;;;;;;;5.13;4.57;;;5.30;82.60;;;;;;5013439;28;20207;-59
2022/01/29 12:40:22;;;;;;;5.25;4.80;;;5.30;83.40;;;;;;5013507;28;20265;-59
2022/01/29 12:42:56;;;;;;;4.57;4.18;;;5.20;84.10;;;;;;5013561;28;20329;-55
2022/01/29 12:45:26;;;;;;;3.90;3.60;;;5.30;84.40;;;;;;5012350;28;20208;-59
2022/01/29 12:48:07;;;;;;;4.30;3.70;;;5.20;84.60;;;;;;5013632;28;20286;-59
2022/01/29 12:50:34;;;;;;;4.38;4.00;;;5.30;85.10;;;;;;5013375;28;20222;-59
2022/01/29 12:53:09;;;;;;;4.13;3.75;;;5.40;84.40;;;;;;5013267;28;20205;-59
2022/01/29 12:55:36;;;;;;;4.30;3.78;;;5.30;84.70;;;;;;5013391;28;20657;-60
2022/01/29 13:01:05;;;;;;;4.00;3.70;;;5.40;85.10;;;;;;5201117;22;20760;-57
2022/01/29 13:03:32;;;;;;;4.75;4.22;;;5.50;84.10;;;;;;5052753;28;20216;-55
2022/01/29 13:06:05;;;;;;;4.03;3.63;;;5.50;83.60;;;;;;5052740;28;20755;-57
2022/01/29 13:08:32;;;;;;;4.85;4.32;;;5.50;83.50;;;;;;5052795;28;20208;-57
2022/01/29 13:10:59;;;;;;;4.60;4.20;;;5.50;83.60;;;;;;5052580;28;20229;-58
2022/01/29 13:13:28;;;;;;;5.00;4.60;;;5.50;83.60;;;;;;5052673;28;20300;-59
2022/01/29 13:15:55;;;;;;;4.72;4.43;;;5.50;83.20;;;;;;5051132;28;20211;-57